Time;durP1;ratioP1;P1;durP2;ratioP2;P2;SDS_P1;SDS_P2;PMS_P1;PMS_P2;Temp;Humidity;BMP_temperature;BMP_pressure;BME280_temperature;BME280_humidity;BME280_pressure;Samples;Min_cycle;Max_cycle;Signal;HPM_P1;HPM_P2
2021/12/26 00:00:26;;;;;;;66.00;44.40;;;;;;;;;;5115302;28;20189;-87
2021/12/26 00:02:54;;;;;;;112.07;53.22;;;;;;;;;;5115568;28;20523;-87
2021/12/26 00:05:22;;;;;;;65.80;45.20;;;;;;;;;;5115102;28;20188;-87
2021/12/26 00:07:50;;;;;;;113.15;56.83;;;;;;;;;;5112221;28;20229;-87
2021/12/26 00:10:18;;;;;;;100.30;54.85;;;;;;;;;;5094961;28;20548;-86
2021/12/26 00:12:47;;;;;;;104.63;55.08;;;;;;;;;;5094664;28;20572;-87
2021/12/26 00:15:14;;;;;;;104.57;51.72;;;;;;;;;;5094503;28;20187;-87
2021/12/26 00:17:42;;;;;;;113.45;57.13;;;;;;;;;;5094404;28;20201;-87
2021/12/26 00:20:10;;;;;;;83.00;51.78;;;;;;;;;;5094432;28;20558;-87
2021/12/26 00:22:38;;;;;;;169.70;66.30;;;;;;;;;;5094322;28;20674;-87
2021/12/26 00:25:06;;;;;;;114.25;56.00;;;;;;;;;;5094447;28;20210;-87
2021/12/26 00:27:33;;;;;;;55.03;43.70;;;;;;;;;;5097744;28;20303;-87
2021/12/26 00:30:02;;;;;;;66.97;46.10;;;;;;;;;;5114639;28;20191;-87
2021/12/26 00:32:30;;;;;;;24.20;22.40;;;;;;;;;;5114364;28;20183;-87
2021/12/26 00:34:57;;;;;;;22.85;21.63;;;;;;;;;;5079818;28;20275;-87
2021/12/26 00:37:25;;;;;;;22.73;21.42;;;;;;;;;;5096648;28;20602;-87
2021/12/26 00:39:53;;;;;;;23.20;21.70;;;;;;;;;;5114106;28;20202;-87
2021/12/26 00:42:20;;;;;;;23.20;21.85;;;;;;;;;;5096360;28;20206;-87
2021/12/26 00:44:47;;;;;;;22.52;21.20;;;;;;;;;;5114221;28;20198;-87
2021/12/26 00:47:16;;;;;;;24.55;22.85;;;;;;;;;;5114367;28;20263;-87
2021/12/26 00:49:44;;;;;;;21.77;20.58;;;;;;;;;;5114386;28;20290;-86
2021/12/26 00:52:11;;;;;;;22.67;21.35;;;;;;;;;;5114663;28;20186;-87
2021/12/26 00:54:38;;;;;;;22.38;21.17;;;;;;;;;;5114478;28;20218;-87
2021/12/26 00:57:06;;;;;;;24.25;22.50;;;;;;;;;;5114380;28;20589;-87
2021/12/26 00:59:34;;;;;;;23.20;21.90;;;;;;;;;;5095936;28;20243;-87
2021/12/26 01:02:01;;;;;;;23.38;21.98;;;;;;;;;;5114433;28;20186;-87
2021/12/26 01:04:30;;;;;;;24.40;22.92;;;;;;;;;;5114261;28;20190;-87
2021/12/26 01:06:58;;;;;;;24.05;22.42;;;;;;;;;;5114218;28;20236;-86
2021/12/26 01:09:29;;;;;;;24.17;22.60;;;;;;;;;;5099055;28;20198;-87
2021/12/26 01:11:59;;;;;;;23.40;22.00;;;;;;;;;;5093585;28;20199;-87
2021/12/26 01:14:30;;;;;;;22.73;21.35;;;;;;;;;;5093570;28;20233;-87
2021/12/26 01:17:05;;;;;;;22.60;21.30;;;;;;;;;;5093708;28;20199;-87
2021/12/26 01:19:42;;;;;;;22.70;21.45;;;;;;;;;;5093774;28;20552;-87
2021/12/26 01:22:10;;;;;;;22.42;21.15;;;;;;;;;;5093624;28;20187;-87
2021/12/26 01:24:38;;;;;;;23.23;22.02;;;;;;;;;;5075690;28;20197;-87
2021/12/26 01:27:06;;;;;;;23.95;22.02;;;;;;;;;;5093245;28;20237;-87
2021/12/26 01:29:36;;;;;;;22.15;20.85;;;;;;;;;;5092966;28;20187;-87
2021/12/26 01:32:04;;;;;;;23.80;22.33;;;;;;;;;;5075250;28;20213;-87
2021/12/26 01:34:32;;;;;;;23.00;21.60;;;;;;;;;;5075219;28;20237;-87
2021/12/26 01:37:00;;;;;;;22.70;21.25;;;;;;;;;;5093420;28;20632;-87
2021/12/26 01:39:28;;;;;;;21.90;20.70;;;;;;;;;;5093557;28;20612;-86
2021/12/26 01:42:01;;;;;;;22.27;21.05;;;;;;;;;;5093432;28;20202;-87
2021/12/26 01:44:28;;;;;;;23.17;21.55;;;;;;;;;;5075205;28;20540;-87
2021/12/26 01:46:56;;;;;;;22.50;20.90;;;;;;;;;;5093148;28;20207;-87
2021/12/26 01:49:24;;;;;;;22.10;20.80;;;;;;;;;;5093107;28;20205;-87
2021/12/26 01:51:53;;;;;;;22.02;20.60;;;;;;;;;;5093568;28;20190;-86
2021/12/26 01:54:30;;;;;;;22.15;20.85;;;;;;;;;;5074994;28;20229;-87
2021/12/26 01:56:57;;;;;;;22.42;21.05;;;;;;;;;;5093678;28;20232;-87
2021/12/26 01:59:25;;;;;;;21.88;20.67;;;;;;;;;;5092898;28;20706;-87
2021/12/26 02:01:52;;;;;;;22.33;21.02;;;;;;;;;;5093197;28;20183;-86
2021/12/26 02:04:19;;;;;;;23.35;21.88;;;;;;;;;;5092971;28;20596;-88
2021/12/26 02:06:47;;;;;;;22.85;21.65;;;;;;;;;;5093152;28;20222;-87
2021/12/26 02:09:14;;;;;;;23.63;22.00;;;;;;;;;;5093236;28;20526;-87
2021/12/26 02:11:43;;;;;;;22.73;21.50;;;;;;;;;;5092939;28;20615;-87
2021/12/26 02:14:11;;;;;;;23.67;22.05;;;;;;;;;;5092903;28;20223;-86
2021/12/26 02:16:38;;;;;;;23.42;22.13;;;;;;;;;;5093463;28;20195;-87
2021/12/26 02:19:06;;;;;;;22.55;21.25;;;;;;;;;;5093398;28;20190;-87
2021/12/26 02:21:56;;;;;;;22.05;20.75;;;;;;;;;;5075159;28;20233;-87
2021/12/26 02:24:32;;;;;;;22.02;20.73;;;;;;;;;;5093084;28;20187;-88
2021/12/26 02:29:44;;;;;;;23.10;21.70;;;;;;;;;;5093108;28;20259;-88
2021/12/26 02:32:14;;;;;;;22.63;21.33;;;;;;;;;;5096686;28;20191;-88
2021/12/26 02:34:42;;;;;;;22.73;21.38;;;;;;;;;;5096814;28;20564;-87
2021/12/26 02:37:11;;;;;;;22.98;21.60;;;;;;;;;;5096567;28;20190;-87
2021/12/26 02:39:38;;;;;;;23.50;22.02;;;;;;;;;;5096705;28;20293;-88
2021/12/26 02:42:06;;;;;;;23.33;21.73;;;;;;;;;;5078865;28;20198;-88
2021/12/26 02:44:33;;;;;;;23.50;21.83;;;;;;;;;;5096305;28;20202;-87
2021/12/26 02:47:01;;;;;;;22.55;21.15;;;;;;;;;;5096546;28;20195;-87
2021/12/26 02:49:28;;;;;;;24.15;22.30;;;;;;;;;;5096689;28;20198;-87
2021/12/26 02:51:56;;;;;;;22.88;21.48;;;;;;;;;;5096609;28;20206;-87
2021/12/26 02:54:26;;;;;;;22.65;21.35;;;;;;;;;;5096065;28;20313;-87
2021/12/26 02:56:53;;;;;;;22.55;21.10;;;;;;;;;;5096411;28;20183;-87
2021/12/26 02:59:20;;;;;;;30.55;28.40;;;;;;;;;;5077968;28;20251;-88
2021/12/26 03:01:48;;;;;;;46.47;39.90;;;;;;;;;;5096163;28;20203;-87
2021/12/26 03:04:16;;;;;;;28.08;26.52;;;;;;;;;;5096169;28;20222;-86
2021/12/26 03:06:52;;;;;;;79.82;50.88;;;;;;;;;;5096087;28;20230;-87
2021/12/26 03:09:19;;;;;;;24.88;23.48;;;;;;;;;;5096210;28;20572;-88
2021/12/26 03:11:49;;;;;;;23.27;21.77;;;;;;;;;;5096075;28;20226;-87
2021/12/26 03:14:17;;;;;;;23.75;22.15;;;;;;;;;;5096170;28;20207;-86
2021/12/26 03:16:48;;;;;;;22.20;20.90;;;;;;;;;;5096262;28;20222;-88
2021/12/26 03:19:16;;;;;;;36.67;33.65;;;;;;;;;;5095612;28;20247;-87
2021/12/26 03:21:43;;;;;;;24.50;22.67;;;;;;;;;;5078024;28;20195;-87
2021/12/26 03:24:11;;;;;;;35.60;32.22;;;;;;;;;;5095468;28;20198;-87
2021/12/26 03:26:38;;;;;;;22.42;20.98;;;;;;;;;;5095203;28;20724;-87
2021/12/26 03:29:07;;;;;;;32.20;29.80;;;;;;;;;;5077705;28;20255;-88
2021/12/26 03:31:34;;;;;;;22.05;20.73;;;;;;;;;;5095963;28;20199;-88
2021/12/26 03:34:03;;;;;;;21.05;19.95;;;;;;;;;;5095432;28;20179;-88
2021/12/26 03:36:31;;;;;;;21.75;20.48;;;;;;;;;;5095690;28;20194;-87
2021/12/26 03:38:58;;;;;;;21.85;20.60;;;;;;;;;;5095260;28;20964;-87
2021/12/26 03:41:26;;;;;;;22.25;20.90;;;;;;;;;;5095268;28;20194;-87
2021/12/26 03:43:53;;;;;;;22.45;21.02;;;;;;;;;;5095311;28;20194;-88
2021/12/26 03:46:22;;;;;;;21.38;20.27;;;;;;;;;;5095092;28;20205;-87
2021/12/26 03:48:49;;;;;;;21.15;20.10;;;;;;;;;;5095279;28;20206;-88
2021/12/26 03:51:18;;;;;;;22.23;20.92;;;;;;;;;;5095299;28;20187;-87
2021/12/26 03:53:46;;;;;;;21.13;20.02;;;;;;;;;;5095225;28;20192;-85
2021/12/26 03:56:13;;;;;;;21.75;20.60;;;;;;;;;;5094840;28;20234;-87
2021/12/26 03:58:42;;;;;;;22.85;21.60;;;;;;;;;;5095087;28;20206;-87
2021/12/26 04:01:09;;;;;;;21.65;20.48;;;;;;;;;;5094607;28;20283;-87
2021/12/26 04:03:38;;;;;;;22.75;21.00;;;;;;;;;;5094777;28;20187;-88
2021/12/26 04:06:05;;;;;;;23.63;22.13;;;;;;;;;;5094810;28;20199;-88
2021/12/26 04:08:33;;;;;;;22.50;21.15;;;;;;;;;;5076814;28;20266;-88
2021/12/26 04:11:00;;;;;;;21.98;20.67;;;;;;;;;;5094942;28;20199;-87
2021/12/26 04:13:27;;;;;;;23.05;21.50;;;;;;;;;;5094886;28;20230;-87
2021/12/26 04:15:55;;;;;;;21.77;20.33;;;;;;;;;;5094258;28;20230;-87
2021/12/26 04:18:22;;;;;;;22.83;21.52;;;;;;;;;;5094398;28;20323;-87
2021/12/26 04:20:51;;;;;;;22.13;20.88;;;;;;;;;;5094635;28;20187;-88
2021/12/26 04:23:18;;;;;;;21.67;20.52;;;;;;;;;;5094273;28;20198;-87
2021/12/26 04:25:46;;;;;;;21.67;20.50;;;;;;;;;;5094595;28;20184;-88
2021/12/26 04:28:17;;;;;;;21.65;20.45;;;;;;;;;;5094463;28;20280;-87
2021/12/26 04:30:44;;;;;;;22.10;20.80;;;;;;;;;;5094448;28;20636;-87
2021/12/26 04:33:12;;;;;;;21.92;20.67;;;;;;;;;;5094361;28;20232;-87
2021/12/26 04:35:40;;;;;;;22.00;20.80;;;;;;;;;;5094088;28;20581;-87
2021/12/26 04:38:09;;;;;;;23.15;21.85;;;;;;;;;;5094521;28;20187;-87
2021/12/26 04:40:36;;;;;;;21.95;20.75;;;;;;;;;;5094946;28;20543;-87
2021/12/26 04:43:03;;;;;;;22.77;21.40;;;;;;;;;;5094438;28;20191;-89
2021/12/26 04:45:31;;;;;;;22.65;21.35;;;;;;;;;;5094262;28;20186;-88
2021/12/26 04:48:01;;;;;;;21.85;20.60;;;;;;;;;;5093775;28;20289;-87
2021/12/26 04:50:29;;;;;;;21.75;20.65;;;;;;;;;;5094346;28;20191;-87
2021/12/26 04:52:57;;;;;;;60.65;40.22;;;;;;;;;;5093640;28;20218;-87
2021/12/26 04:55:27;;;;;;;22.17;20.98;;;;;;;;;;5093668;28;20685;-87
2021/12/26 04:57:55;;;;;;;22.88;21.38;;;;;;;;;;5076050;28;20198;-88
2021/12/26 05:00:23;;;;;;;22.45;21.25;;;;;;;;;;5094176;28;20198;-87
2021/12/26 05:02:51;;;;;;;44.60;39.45;;;;;;;;;;5093326;28;20707;-87
2021/12/26 05:05:19;;;;;;;147.57;66.72;;;;;;;;;;5093855;28;20202;-88
2021/12/26 05:07:47;;;;;;;111.50;51.28;;;;;;;;;;5093745;28;20219;-88
2021/12/26 05:10:17;;;;;;;21.95;20.75;;;;;;;;;;5094010;28;20189;-86
2021/12/26 05:12:46;;;;;;;22.83;21.33;;;;;;;;;;5093927;28;20215;-87
2021/12/26 05:15:16;;;;;;;172.98;57.75;;;;;;;;;;5093496;28;20226;-88
2021/12/26 05:17:43;;;;;;;24.33;22.48;;;;;;;;;;5093881;28;20183;-88
2021/12/26 05:20:11;;;;;;;138.70;59.17;;;;;;;;;;5093120;28;20198;-88
2021/12/26 05:22:39;;;;;;;183.10;65.55;;;;;;;;;;5093260;28;20191;-87
2021/12/26 05:25:07;;;;;;;179.18;65.38;;;;;;;;;;5093482;28;20195;-86
2021/12/26 05:27:35;;;;;;;172.70;64.75;;;;;;;;;;5093208;28;20741;-87
2021/12/26 05:30:05;;;;;;;221.60;71.35;;;;;;;;;;5093334;28;20191;-86
2021/12/26 05:32:32;;;;;;;287.85;77.43;;;;;;;;;;5093204;28;20589;-88
2021/12/26 05:35:00;;;;;;;257.40;79.70;;;;;;;;;;5075370;28;20291;-88
2021/12/26 05:37:27;;;;;;;291.65;76.80;;;;;;;;;;5093717;28;20240;-87
2021/12/26 05:39:56;;;;;;;255.63;75.43;;;;;;;;;;5093502;28;20191;-87
2021/12/26 05:42:24;;;;;;;307.38;79.28;;;;;;;;;;5093500;28;20201;-87
2021/12/26 05:44:51;;;;;;;293.60;77.43;;;;;;;;;;5093199;28;20190;-87
2021/12/26 05:47:20;;;;;;;244.80;73.30;;;;;;;;;;5093450;28;20191;-87
2021/12/26 05:49:47;;;;;;;205.95;66.85;;;;;;;;;;5093330;28;20198;-87
2021/12/26 05:52:15;;;;;;;332.95;102.63;;;;;;;;;;5093500;28;20241;-87
2021/12/26 05:54:43;;;;;;;165.48;66.90;;;;;;;;;;5093227;28;20190;-87
2021/12/26 05:57:10;;;;;;;100.28;57.10;;;;;;;;;;5093545;28;20200;-87
2021/12/26 05:59:38;;;;;;;111.50;57.70;;;;;;;;;;5093409;28;20194;-86
2021/12/26 06:02:05;;;;;;;101.47;54.55;;;;;;;;;;5093413;28;20195;-87
2021/12/26 06:04:34;;;;;;;125.03;58.90;;;;;;;;;;5094959;28;20524;-87
2021/12/26 06:07:02;;;;;;;98.10;55.50;;;;;;;;;;5097423;28;20578;-87
2021/12/26 06:09:29;;;;;;;93.85;53.97;;;;;;;;;;5096941;28;20194;-87
2021/12/26 06:11:56;;;;;;;59.78;46.83;;;;;;;;;;5097071;28;20208;-87
2021/12/26 06:14:24;;;;;;;42.30;38.17;;;;;;;;;;5097313;28;20194;-87
2021/12/26 06:16:51;;;;;;;39.10;35.92;;;;;;;;;;5097015;28;20672;-87
2021/12/26 06:19:19;;;;;;;45.50;40.83;;;;;;;;;;5096994;28;20186;-88
2021/12/26 06:21:48;;;;;;;44.85;40.20;;;;;;;;;;5079317;28;20198;-85
2021/12/26 06:24:15;;;;;;;130.40;61.88;;;;;;;;;;5097091;28;20643;-87
2021/12/26 06:26:43;;;;;;;26.85;24.55;;;;;;;;;;5096559;28;20227;-87
2021/12/26 06:29:10;;;;;;;25.05;23.00;;;;;;;;;;5096748;28;20187;-88
2021/12/26 06:31:38;;;;;;;24.02;22.63;;;;;;;;;;5096735;28;20199;-87
2021/12/26 06:34:05;;;;;;;22.88;21.58;;;;;;;;;;5096523;28;20659;-88
2021/12/26 06:36:33;;;;;;;24.52;22.75;;;;;;;;;;5096671;28;20211;-87
2021/12/26 06:39:01;;;;;;;24.98;23.13;;;;;;;;;;5096814;28;20528;-87
2021/12/26 06:41:29;;;;;;;23.52;21.92;;;;;;;;;;5096613;28;20197;-87
2021/12/26 06:43:56;;;;;;;24.92;23.42;;;;;;;;;;5096384;28;20649;-88
2021/12/26 06:46:23;;;;;;;25.35;23.58;;;;;;;;;;5096417;28;20198;-87
2021/12/26 06:48:51;;;;;;;24.98;23.45;;;;;;;;;;5096644;28;20542;-86
2021/12/26 06:51:20;;;;;;;23.38;22.02;;;;;;;;;;5095973;28;20203;-87
2021/12/26 06:53:47;;;;;;;24.95;23.30;;;;;;;;;;5078456;28;20206;-87
2021/12/26 06:56:16;;;;;;;24.60;22.77;;;;;;;;;;5095793;28;20234;-87
2021/12/26 06:58:44;;;;;;;24.25;22.65;;;;;;;;;;5096550;28;20191;-87
2021/12/26 07:01:11;;;;;;;24.50;22.90;;;;;;;;;;5096242;28;20195;-87
2021/12/26 07:03:38;;;;;;;25.38;23.77;;;;;;;;;;5096066;28;20258;-87
2021/12/26 07:06:06;;;;;;;26.55;24.30;;;;;;;;;;5095737;28;20211;-87
2021/12/26 07:08:33;;;;;;;24.70;22.90;;;;;;;;;;5096278;28;20272;-87
2021/12/26 07:11:01;;;;;;;28.88;26.88;;;;;;;;;;5096180;28;20554;-86
2021/12/26 07:13:30;;;;;;;31.67;29.45;;;;;;;;;;5095420;28;20198;-87
2021/12/26 07:15:57;;;;;;;25.92;24.13;;;;;;;;;;5094983;28;20211;-87
2021/12/26 07:18:25;;;;;;;82.68;51.20;;;;;;;;;;5095946;28;20187;-87
2021/12/26 07:20:52;;;;;;;24.27;22.63;;;;;;;;;;5095688;28;20197;-87
2021/12/26 07:23:20;;;;;;;25.05;23.30;;;;;;;;;;5095480;28;20198;-87
2021/12/26 07:25:47;;;;;;;24.52;22.92;;;;;;;;;;5095664;28;20640;-87
2021/12/26 07:28:15;;;;;;;24.17;22.67;;;;;;;;;;5095540;28;20742;-87
2021/12/26 07:30:43;;;;;;;25.33;23.63;;;;;;;;;;5095697;28;20191;-86
2021/12/26 07:33:11;;;;;;;24.00;22.60;;;;;;;;;;5095419;28;20191;-86
2021/12/26 07:35:38;;;;;;;24.67;22.98;;;;;;;;;;5095120;28;20301;-83
2021/12/26 07:38:06;;;;;;;23.88;22.33;;;;;;;;;;5094527;28;20198;-82
2021/12/26 07:40:33;;;;;;;22.67;21.20;;;;;;;;;;5076207;28;20244;-82
2021/12/26 07:43:01;;;;;;;23.83;22.33;;;;;;;;;;5094179;28;20580;-83
2021/12/26 07:45:28;;;;;;;24.95;23.35;;;;;;;;;;5094087;28;20197;-83
2021/12/26 07:47:57;;;;;;;24.60;23.15;;;;;;;;;;5094507;28;20401;-83
2021/12/26 07:50:26;;;;;;;24.98;23.38;;;;;;;;;;5094311;28;20191;-83
2021/12/26 07:52:54;;;;;;;25.90;24.30;;;;;;;;;;5094598;28;20243;-82
2021/12/26 07:55:22;;;;;;;25.17;23.48;;;;;;;;;;5093963;28;20202;-82
2021/12/26 07:57:50;;;;;;;24.73;23.10;;;;;;;;;;5095472;28;20197;-83
2021/12/26 08:00:18;;;;;;;25.50;23.77;;;;;;;;;;5094466;28;20573;-82
2021/12/26 08:02:45;;;;;;;27.25;25.35;;;;;;;;;;5094578;28;20210;-82
2021/12/26 08:05:14;;;;;;;25.70;24.02;;;;;;;;;;5095408;28;20194;-83
2021/12/26 08:07:42;;;;;;;25.35;23.70;;;;;;;;;;5095730;28;20577;-82
2021/12/26 08:10:09;;;;;;;26.10;24.30;;;;;;;;;;5096427;28;20190;-81
2021/12/26 08:12:37;;;;;;;27.77;25.77;;;;;;;;;;5095842;28;20191;-81
2021/12/26 08:15:05;;;;;;;28.58;26.48;;;;;;;;;;5096188;28;20194;-82
2021/12/26 08:17:32;;;;;;;27.05;25.15;;;;;;;;;;5097082;28;20226;-83
2021/12/26 08:20:00;;;;;;;26.50;24.60;;;;;;;;;;5095923;28;20201;-82
2021/12/26 08:22:29;;;;;;;26.88;25.05;;;;;;;;;;5096248;28;20576;-83
2021/12/26 08:24:56;;;;;;;26.85;25.00;;;;;;;;;;5096147;28;20191;-83
2021/12/26 08:27:23;;;;;;;27.20;24.80;;;;;;;;;;5094702;28;20234;-83
2021/12/26 08:29:51;;;;;;;25.40;23.50;;;;;;;;;;5094801;28;20609;-83
2021/12/26 08:32:19;;;;;;;25.73;24.10;;;;;;;;;;5096088;28;20198;-81
2021/12/26 08:34:47;;;;;;;27.45;25.75;;;;;;;;;;5077962;28;20282;-82
2021/12/26 08:37:15;;;;;;;27.00;25.10;;;;;;;;;;5093864;28;20751;-83
2021/12/26 08:39:44;;;;;;;28.20;26.50;;;;;;;;;;5095037;28;20191;-82
2021/12/26 08:42:13;;;;;;;27.35;25.85;;;;;;;;;;5096439;28;20186;-82
2021/12/26 08:44:41;;;;;;;27.70;25.85;;;;;;;;;;5095300;28;20194;-83
2021/12/26 08:47:09;;;;;;;26.75;24.92;;;;;;;;;;5095652;28;20186;-83
2021/12/26 08:49:36;;;;;;;26.15;24.38;;;;;;;;;;5094407;28;20195;-82
2021/12/26 08:52:05;;;;;;;27.90;26.02;;;;;;;;;;5094805;28;20199;-82
2021/12/26 08:54:33;;;;;;;25.08;23.40;;;;;;;;;;5077148;28;20197;-83
2021/12/26 08:57:02;;;;;;;27.40;25.63;;;;;;;;;;5094090;28;20618;-83
2021/12/26 08:59:30;;;;;;;25.77;24.08;;;;;;;;;;5095634;28;20198;-84
2021/12/26 09:01:58;;;;;;;25.92;24.25;;;;;;;;;;5076971;28;20249;-82
2021/12/26 09:04:25;;;;;;;26.25;24.58;;;;;;;;;;5095815;28;20187;-83
2021/12/26 09:06:53;;;;;;;26.23;24.52;;;;;;;;;;5095481;28;20214;-84
2021/12/26 09:09:20;;;;;;;25.67;24.15;;;;;;;;;;5106142;28;20204;-83
2021/12/26 09:11:48;;;;;;;25.30;23.63;;;;;;;;;;5114310;28;20182;-83
2021/12/26 09:14:17;;;;;;;25.50;23.90;;;;;;;;;;5115610;28;20197;-82
2021/12/26 09:16:44;;;;;;;26.30;24.55;;;;;;;;;;5115343;28;20218;-82
2021/12/26 09:19:12;;;;;;;26.73;24.95;;;;;;;;;;5114957;28;20652;-82
2021/12/26 09:21:39;;;;;;;25.88;24.23;;;;;;;;;;5115310;28;20190;-83
2021/12/26 09:24:07;;;;;;;27.17;25.35;;;;;;;;;;5117252;28;20190;-83
2021/12/26 09:26:34;;;;;;;27.63;25.77;;;;;;;;;;5096583;28;20238;-83
2021/12/26 09:29:02;;;;;;;28.50;26.50;;;;;;;;;;5095145;28;20190;-83
2021/12/26 09:31:30;;;;;;;30.85;28.35;;;;;;;;;;5099845;28;20199;-83
2021/12/26 09:33:58;;;;;;;23.77;22.45;;;;;;;;;;5100499;28;20200;-83
2021/12/26 09:36:25;;;;;;;27.33;25.52;;;;;;;;;;5097270;28;20225;-84
2021/12/26 09:38:53;;;;;;;28.33;26.52;;;;;;;;;;5095479;28;20199;-84
2021/12/26 09:41:20;;;;;;;28.92;26.83;;;;;;;;;;5096914;28;20202;-83
2021/12/26 09:43:47;;;;;;;28.20;26.40;;;;;;;;;;5098065;28;20201;-84
2021/12/26 09:46:15;;;;;;;27.98;26.27;;;;;;;;;;5099923;28;20198;-84
2021/12/26 09:48:44;;;;;;;26.88;25.17;;;;;;;;;;5100833;28;20186;-84
2021/12/26 09:51:12;;;;;;;28.65;25.92;;;;;;;;;;5098137;28;20220;-84
2021/12/26 09:53:40;;;;;;;27.63;25.73;;;;;;;;;;5096017;28;20198;-84
2021/12/26 09:56:08;;;;;;;26.80;25.00;;;;;;;;;;5098167;28;20188;-84
2021/12/26 09:58:36;;;;;;;27.65;25.50;;;;;;;;;;5095174;28;20195;-83
2021/12/26 10:01:03;;;;;;;26.00;24.50;;;;;;;;;;5095670;28;20187;-84
2021/12/26 10:03:34;;;;;;;26.90;25.13;;;;;;;;;;5093796;28;20194;-84
2021/12/26 10:06:05;;;;;;;26.23;24.50;;;;;;;;;;5095486;28;20203;-84
2021/12/26 10:08:34;;;;;;;26.42;24.65;;;;;;;;;;5093470;28;20190;-84
2021/12/26 10:11:12;;;;;;;26.30;24.70;;;;;;;;;;5092763;28;20191;-84
2021/12/26 10:13:45;;;;;;;27.30;25.35;;;;;;;;;;5092707;28;20225;-84
2021/12/26 10:16:14;;;;;;;26.88;25.08;;;;;;;;;;5091701;28;20269;-83
2021/12/26 10:18:41;;;;;;;28.02;26.00;;;;;;;;;;5093909;28;20198;-83
2021/12/26 10:21:30;;;;;;;27.55;25.55;;;;;;;;;;5093344;28;20194;-84
2021/12/26 10:23:58;;;;;;;26.60;24.80;;;;;;;;;;5093673;28;20183;-84
2021/12/26 10:26:26;;;;;;;27.65;25.77;;;;;;;;;;5096246;28;20238;-84
2021/12/26 10:29:21;;;;;;;26.52;24.73;;;;;;;;;;5114428;28;21008;-86
2021/12/26 10:31:53;;;;;;;26.60;24.88;;;;;;;;;;5050620;28;20207;-87
2021/12/26 10:34:23;;;;;;;27.65;26.05;;;;;;;;;;5050128;28;21102;-82
2021/12/26 10:36:53;;;;;;;26.23;24.58;;;;;;;;;;5050381;28;20204;-84
2021/12/26 10:39:22;;;;;;;26.55;24.77;;;;;;;;;;5050755;28;20287;-84
2021/12/26 10:41:50;;;;;;;26.80;25.10;;;;;;;;;;5050810;28;20207;-84
2021/12/26 10:44:25;;;;;;;26.40;24.60;;;;;;;;;;5050669;28;20196;-84
2021/12/26 10:46:56;;;;;;;26.90;25.08;;;;;;;;;;5050267;28;20207;-85
2021/12/26 10:49:34;;;;;;;26.17;24.38;;;;;;;;;;5050008;28;20188;-85
2021/12/26 10:52:10;;;;;;;26.60;24.73;;;;;;;;;;5052305;28;20677;-84
2021/12/26 10:54:41;;;;;;;25.27;23.48;;;;;;;;;;5053432;28;20253;-84
2021/12/26 10:57:20;;;;;;;26.73;24.85;;;;;;;;;;5053783;28;20218;-84
2021/12/26 10:59:48;;;;;;;27.52;25.38;;;;;;;;;;5053253;28;20188;-84
2021/12/26 11:02:23;;;;;;;31.42;29.02;;;;;;;;;;5052986;28;20668;-83
2021/12/26 11:05:00;;;;;;;28.63;26.60;;;;;;;;;;5053186;28;20204;-84
2021/12/26 11:07:29;;;;;;;29.35;27.13;;;;;;;;;;5081673;28;20655;-83
2021/12/26 11:10:02;;;;;;;49.08;45.28;;;;;;;;;;5100653;28;20199;-84
2021/12/26 11:12:38;;;;;;;29.70;27.58;;;;;;;;;;5095098;28;20221;-84
2021/12/26 11:15:06;;;;;;;28.38;26.45;;;;;;;;;;5095228;28;20298;-83
2021/12/26 11:17:35;;;;;;;28.17;26.38;;;;;;;;;;5076737;28;20230;-84
2021/12/26 11:20:02;;;;;;;28.00;26.00;;;;;;;;;;5094956;28;20206;-84
2021/12/26 11:22:31;;;;;;;29.27;27.00;;;;;;;;;;5095101;28;20210;-84
2021/12/26 11:24:58;;;;;;;27.77;26.02;;;;;;;;;;5094832;28;20549;-83
2021/12/26 11:27:26;;;;;;;28.63;26.63;;;;;;;;;;5076689;28;20644;-83
2021/12/26 11:29:54;;;;;;;28.50;26.50;;;;;;;;;;5094306;28;20679;-82
2021/12/26 11:32:22;;;;;;;30.33;28.42;;;;;;;;;;5094424;28;20191;-83
2021/12/26 11:34:50;;;;;;;29.40;27.60;;;;;;;;;;5094218;28;20187;-82
2021/12/26 11:37:18;;;;;;;28.70;26.75;;;;;;;;;;5094539;28;20260;-83
2021/12/26 11:39:47;;;;;;;30.55;28.33;;;;;;;;;;5094568;28;20554;-83
2021/12/26 11:42:34;;;;;;;28.88;26.90;;;;;;;;;;5094287;28;20648;-82
2021/12/26 11:45:10;;;;;;;27.45;25.38;;;;;;;;;;5096202;28;20220;-83
2021/12/26 11:47:59;;;;;;;28.25;26.25;;;;;;;;;;5096535;28;20187;-83
2021/12/26 11:50:30;;;;;;;29.05;27.00;;;;;;;;;;5094666;28;20194;-83
2021/12/26 11:53:09;;;;;;;28.25;26.45;;;;;;;;;;5094291;28;20194;-83
2021/12/26 11:55:42;;;;;;;27.83;25.77;;;;;;;;;;5094533;28;20191;-83
2021/12/26 11:58:30;;;;;;;28.33;26.48;;;;;;;;;;5093916;28;20656;-82
2021/12/26 12:00:59;;;;;;;29.25;27.20;;;;;;;;;;5093753;28;20551;-83
2021/12/26 12:03:27;;;;;;;27.77;25.88;;;;;;;;;;5093494;28;20194;-83
2021/12/26 12:05:55;;;;;;;29.05;27.05;;;;;;;;;;5093702;28;20233;-82
2021/12/26 12:08:27;;;;;;;30.63;28.42;;;;;;;;;;5095783;28;20198;-82
2021/12/26 12:11:00;;;;;;;30.58;28.27;;;;;;;;;;5114891;28;20194;-83
2021/12/26 12:13:44;;;;;;;29.15;27.00;;;;;;;;;;5115563;28;20194;-82
2021/12/26 12:16:11;;;;;;;29.10;26.98;;;;;;;;;;5115059;28;20202;-83
2021/12/26 12:18:39;;;;;;;28.85;26.75;;;;;;;;;;5114818;28;20568;-82
2021/12/26 12:21:14;;;;;;;29.85;27.70;;;;;;;;;;5115160;28;20654;-82
2021/12/26 12:23:57;;;;;;;28.48;26.60;;;;;;;;;;5114717;28;20193;-83
2021/12/26 12:26:39;;;;;;;29.38;27.25;;;;;;;;;;5123159;28;20555;-84
2021/12/26 12:29:06;;;;;;;27.30;25.38;;;;;;;;;;5116018;28;20202;-83
2021/12/26 12:31:34;;;;;;;29.60;27.40;;;;;;;;;;5115824;28;20182;-83
2021/12/26 12:34:03;;;;;;;30.98;28.60;;;;;;;;;;5115908;28;20192;-83
2021/12/26 12:36:31;;;;;;;30.17;27.95;;;;;;;;;;5114568;28;20186;-84
2021/12/26 12:39:11;;;;;;;30.08;27.60;;;;;;;;;;5113820;28;20217;-83
2021/12/26 12:41:41;;;;;;;30.50;28.15;;;;;;;;;;5114150;28;20273;-83
2021/12/26 12:44:23;;;;;;;29.08;27.00;;;;;;;;;;5113715;28;20655;-82
2021/12/26 12:46:55;;;;;;;30.80;28.55;;;;;;;;;;5095436;28;20206;-83
2021/12/26 12:49:40;;;;;;;30.25;27.85;;;;;;;;;;5113440;28;20275;-83
2021/12/26 12:52:08;;;;;;;27.00;25.23;;;;;;;;;;5113885;28;20190;-81
2021/12/26 12:54:36;;;;;;;33.22;30.73;;;;;;;;;;5113493;28;20661;-83
2021/12/26 12:57:06;;;;;;;29.92;27.83;;;;;;;;;;5113320;28;20251;-83
2021/12/26 12:59:40;;;;;;;29.00;26.90;;;;;;;;;;5113538;28;20196;-83
2021/12/26 13:02:12;;;;;;;30.65;28.15;;;;;;;;;;5113339;28;20590;-83
2021/12/26 13:04:47;;;;;;;30.33;28.08;;;;;;;;;;5094972;28;20251;-83
2021/12/26 13:07:19;;;;;;;30.55;28.13;;;;;;;;;;5113579;28;20583;-84
2021/12/26 13:09:50;;;;;;;29.50;27.45;;;;;;;;;;5107332;28;20191;-83
2021/12/26 13:12:20;;;;;;;31.33;28.90;;;;;;;;;;5110427;28;20198;-84
2021/12/26 13:14:48;;;;;;;31.58;29.17;;;;;;;;;;5100868;28;20199;-83
2021/12/26 13:17:17;;;;;;;30.02;27.90;;;;;;;;;;5094109;28;20287;-83
2021/12/26 13:19:44;;;;;;;32.90;30.30;;;;;;;;;;5093920;28;20276;-84
2021/12/26 13:22:12;;;;;;;29.05;26.70;;;;;;;;;;5093319;28;20198;-83
2021/12/26 13:24:41;;;;;;;28.95;26.80;;;;;;;;;;5093298;28;20195;-83
2021/12/26 13:27:09;;;;;;;28.52;26.35;;;;;;;;;;5092872;28;20224;-83
2021/12/26 13:29:49;;;;;;;25.58;23.88;;;;;;;;;;5093223;28;20195;-83
2021/12/26 13:32:16;;;;;;;30.15;27.80;;;;;;;;;;5092449;28;20198;-83
2021/12/26 13:34:52;;;;;;;29.45;27.40;;;;;;;;;;5092868;28;20200;-82
2021/12/26 13:37:20;;;;;;;29.95;27.40;;;;;;;;;;5092619;28;20297;-83
2021/12/26 13:39:53;;;;;;;30.73;28.15;;;;;;;;;;5092740;28;20191;-83
2021/12/26 13:42:21;;;;;;;33.03;30.02;;;;;;;;;;5074621;28;20244;-82
2021/12/26 13:44:50;;;;;;;29.92;27.73;;;;;;;;;;5074440;28;20672;-83
2021/12/26 13:47:18;;;;;;;33.45;30.88;;;;;;;;;;5092447;28;20629;-84
2021/12/26 13:49:45;;;;;;;30.45;27.95;;;;;;;;;;5092544;28;20203;-82
2021/12/26 13:52:16;;;;;;;30.75;28.25;;;;;;;;;;5092350;28;20199;-83
2021/12/26 13:54:49;;;;;;;29.52;27.33;;;;;;;;;;5092828;28;20644;-82
2021/12/26 13:57:17;;;;;;;29.98;27.63;;;;;;;;;;5092246;28;20191;-83
2021/12/26 13:59:46;;;;;;;27.80;25.70;;;;;;;;;;5092297;28;20248;-83
2021/12/26 14:02:15;;;;;;;29.08;26.85;;;;;;;;;;5092239;28;20199;-83
2021/12/26 14:04:44;;;;;;;29.52;27.25;;;;;;;;;;5092359;28;20219;-83
2021/12/26 14:07:12;;;;;;;31.88;29.33;;;;;;;;;;5073837;28;20256;-83
2021/12/26 14:09:40;;;;;;;30.13;27.92;;;;;;;;;;5092267;28;20188;-83
2021/12/26 14:12:07;;;;;;;28.52;26.48;;;;;;;;;;5091958;28;20198;-83
2021/12/26 14:14:38;;;;;;;27.35;25.13;;;;;;;;;;5091996;28;20187;-83
2021/12/26 14:17:08;;;;;;;29.67;27.27;;;;;;;;;;5092147;28;20245;-83
2021/12/26 14:19:37;;;;;;;30.40;28.00;;;;;;;;;;5091865;28;20250;-83
2021/12/26 14:22:05;;;;;;;28.92;26.77;;;;;;;;;;5092263;28;20190;-83
2021/12/26 14:24:33;;;;;;;29.58;27.38;;;;;;;;;;5091718;28;20594;-83
2021/12/26 14:27:00;;;;;;;30.92;28.40;;;;;;;;;;5093989;28;20325;-82
2021/12/26 14:29:29;;;;;;;29.58;27.27;;;;;;;;;;5096188;28;20579;-82